Terminal Aerodrome Forecast
Issued by NWS Louisville, KY

Home | Current Version | Previous Version | Text Only | Print | Product List | Glossary On
Versions: 1 2 3 4 5 6 7 8 9 10 11 12 13
606
FTUS43 KLMK 200520
TAFLEX
TAF
KLEX 200520Z 2006/2106 15005KT 5SM BR SKC
     FM200900 VRB03KT 2SM BR SCT025
      TEMPO 2009/2012 1/2SM FG SCT003
     FM201400 VRB03KT P6SM FEW030 SCT040=

USA.gov is the U.S. government's official web portal to all federal, state and local government web resources and services.